Jamestown, TN

1:05 AM CDT on September 24, 2014 (GMT -0500)
Upper Cumberland Regional | Change Station
CLOSE
Current Station
Airport
Location: Sparta,
Elevation: 1024 ft
Nearby Weather Stations

Elev 1024 ft 36.05 °N, 85.54 °W | Updated 10 minutes ago

Clear
Clear
46 °F
Feels Like 46 °F
N
0
Wind Variable Wind from North

Today
High -- | Low -- °F
--% Chance of Precip.
Yesterday
High -- | Low -- °F
Precip. -- in
6:29 AM 6:33 PM
Waning Crescent, 0% visible
Pressure 30.25 in
Visibility 5.0 miles
Clouds Clear
Dew Point 46 °F
Humidity 100%
Rainfall 0.00 in
Snow Depth Not available.
UV 0 out of 12
Pollen 5.80 out of 12
Air Quality Not available.
Flu Activity Not available.
METAR KSRB 240555Z AUTO 00000KT 5SM CLR 08/08 A3025 RMK

More Conditions Fewer Conditions

Pressure 30.25 in
Visibility 5.0 miles
Clouds Clear
Dew Point 46 °F
Humidity 100%
Rainfall 0.00 in
Snow Depth Not available.
UV 0 out of 12
Pollen 5.80 out of 12
Air Quality Not available.
Flu Activity Not available.
METAR KSRB 240555Z AUTO 00000KT 5SM CLR 08/08 A3025 RMK

More Conditions Fewer Conditions

10-Day Weather Forecast

Almanac

Astronomy

Sep. 24, 2014 Rise Set
Actual Time 6:29 AM CDT 6:33 PM CDT
Civil Twilight 6:03 AM CDT 6:59 PM CDT
Nautical Twilight 5:33 AM CDT 7:29 PM CDT
Astronomical Twilight 5:03 AM CDT 7:59 PM CDT
Moon 6:47 AM CDT 6:45 PM CDT
Length of Visible Light 12h 55m
Length of Day
12h 04m
Tomorrow will be 2m 17s shorter.
Waning Crescent, 0% of the Moon is Illuminated
Today
Waning Crescent
Sep 24
New
Oct 1
First Quarter
Oct 8
Full
Oct 15
Last Quarter

Today's Extremes

State Highs State Lows

Community

WunderPhotos

Upload Photos

1,755,891 photos uploaded!

WunderBlogs® & News

Nearby

Snow Depth

Station Depth Elevation
No new snow has been reported.

Earthquake Activity

City Distance Mag. Time & Date
No recent earthquake activity has been reported nearby.
Minimum magnitude displayed is 2.5.

Coastal Water Temperatures

Place Temperature
No Stations Reporting

Nearby Weather Stations